createdAt,value
2022-08-11T00:01:49.799Z,2.03
2022-08-11T00:04:39.391Z,1.80
2022-08-11T00:07:24.131Z,1.83
2022-08-11T00:10:12.898Z,1.97
2022-08-11T00:12:58.701Z,2.20
2022-08-11T00:15:48.728Z,1.53
2022-08-11T00:18:41.345Z,1.93
2022-08-11T00:22:02.856Z,1.63
2022-08-11T00:24:53.589Z,1.80
2022-08-11T00:27:42.852Z,1.90
2022-08-11T00:30:26.736Z,1.90
2022-08-11T00:33:10.813Z,1.93
2022-08-11T00:36:00.890Z,2.10
2022-08-11T00:38:47.573Z,2.57
2022-08-11T00:41:35.625Z,2.80
2022-08-11T00:44:52.844Z,2.33
2022-08-11T00:47:56.501Z,2.87
2022-08-11T00:50:58.988Z,3.20
2022-08-11T00:53:55.545Z,2.97
2022-08-11T00:57:36.031Z,3.30
2022-08-11T01:00:23.363Z,2.73
2022-08-11T01:03:29.315Z,2.87
2022-08-11T01:06:39.578Z,2.90
2022-08-11T01:09:38.736Z,3.03
2022-08-11T01:12:43.081Z,3.13
2022-08-11T01:16:07.693Z,3.50
2022-08-11T01:19:25.352Z,2.83
2022-08-11T01:22:43.237Z,2.93
2022-08-11T01:25:57.936Z,3.30
2022-08-11T01:29:21.963Z,3.20
2022-08-11T01:32:59.709Z,3.63
2022-08-11T01:36:22.873Z,2.90
2022-08-11T01:39:48.787Z,3.57
2022-08-11T01:43:38.484Z,3.53
2022-08-11T01:46:28.185Z,3.53
2022-08-11T01:50:06.643Z,4.33
2022-08-11T01:52:36.231Z,4.40
2022-08-11T01:55:28.832Z,3.93
2022-08-11T01:58:28.376Z,3.97
2022-08-11T02:01:44.585Z,4.67
2022-08-11T02:04:35.718Z,4.73
2022-08-11T02:07:31.225Z,4.57
2022-08-11T02:10:42.731Z,4.53
2022-08-11T02:14:01.817Z,3.97
2022-08-11T02:16:56.520Z,4.63
2022-08-11T02:20:11.219Z,3.90
2022-08-11T02:24:04.191Z,4.27
2022-08-11T02:26:25.167Z,4.37
2022-08-11T02:29:18.219Z,4.33
2022-08-11T02:32:30.674Z,3.80
2022-08-11T02:35:24.034Z,3.27
2022-08-11T02:38:18.611Z,3.80
2022-08-11T02:41:30.766Z,3.03
2022-08-11T02:44:31.160Z,3.60
2022-08-11T02:47:25.790Z,3.50
2022-08-11T02:50:23.379Z,3.10
2022-08-11T02:53:15.916Z,3.40
2022-08-11T02:56:10.121Z,3.80
2022-08-11T02:59:18.389Z,2.83
2022-08-11T03:02:12.371Z,2.87
2022-08-11T03:05:09.296Z,3.17
2022-08-11T03:08:09.621Z,2.87
2022-08-11T03:11:19.827Z,3.33
2022-08-11T03:14:33.249Z,3.10
2022-08-11T03:17:29.807Z,3.80
2022-08-11T03:20:37.906Z,3.10
2022-08-11T03:23:31.280Z,3.73
2022-08-11T03:26:25.546Z,3.10
2022-08-11T03:29:18.266Z,3.97
2022-08-11T03:32:12.692Z,2.90
2022-08-11T03:35:01.461Z,3.10
2022-08-11T03:37:57.807Z,3.23
2022-08-11T03:42:01.948Z,3.10
2022-08-11T03:44:39.403Z,3.50
2022-08-11T03:47:52.357Z,3.40
2022-08-11T03:50:56.327Z,3.27
2022-08-11T03:53:50.630Z,3.07
2022-08-11T03:57:09.116Z,3.97
2022-08-11T04:00:22.716Z,3.17
2022-08-11T04:04:09.494Z,3.67
2022-08-11T04:07:27.352Z,3.87
2022-08-11T04:10:47.582Z,4.07
2022-08-11T04:14:23.473Z,4.30
2022-08-11T04:17:34.085Z,4.17
2022-08-11T04:20:31.653Z,4.57
2022-08-11T04:24:36.334Z,4.17
2022-08-11T04:27:14.747Z,4.00
2022-08-11T04:30:09.247Z,3.20
2022-08-11T04:33:35.388Z,3.40
2022-08-11T04:37:03.870Z,4.00
2022-08-11T04:40:13.543Z,3.87
2022-08-11T04:44:02.684Z,3.70
2022-08-11T04:47:58.132Z,3.50
2022-08-11T04:51:17.484Z,3.53
2022-08-11T04:54:34.343Z,3.30
2022-08-11T04:57:51.605Z,3.40
2022-08-11T05:01:10.804Z,3.27
2022-08-11T05:04:31.540Z,2.77
2022-08-11T05:07:52.735Z,3.13
2022-08-11T05:10:52.688Z,3.43
2022-08-11T05:14:03.174Z,3.03
2022-08-11T05:17:09.918Z,3.00
2022-08-11T05:20:11.183Z,3.20
2022-08-11T05:23:12.621Z,3.77
2022-08-11T05:26:47.853Z,3.30
2022-08-11T05:29:58.471Z,2.90
2022-08-11T05:33:03.831Z,2.80
2022-08-11T05:36:02.338Z,2.50
2022-08-11T05:39:18.339Z,2.70
2022-08-11T05:42:29.982Z,2.40
2022-08-11T05:45:58.178Z,2.97
2022-08-11T05:49:00.175Z,2.53
2022-08-11T05:52:05.682Z,2.35
2022-08-11T05:55:21.186Z,2.63
2022-08-11T05:58:06.772Z,2.70
2022-08-11T06:00:54.289Z,2.83
2022-08-11T06:03:59.185Z,2.53
2022-08-11T06:06:52.267Z,2.05
2022-08-11T06:09:37.881Z,2.58
2022-08-11T06:12:24.970Z,2.67
2022-08-11T06:15:13.092Z,1.85
2022-08-11T06:18:00.868Z,2.30
2022-08-11T06:20:49.661Z,2.40
2022-08-11T06:23:35.939Z,2.63
2022-08-11T06:26:22.287Z,2.47
2022-08-11T06:29:08.285Z,2.40
2022-08-11T06:31:54.964Z,2.20
2022-08-11T06:35:06.474Z,1.77
2022-08-11T06:38:06.465Z,2.15
2022-08-11T06:41:08.939Z,1.88
2022-08-11T06:43:56.413Z,2.10
2022-08-11T06:46:41.897Z,1.92
2022-08-11T06:49:52.528Z,2.05
2022-08-11T06:52:40.181Z,1.90
2022-08-11T06:55:56.721Z,2.30
2022-08-11T06:59:00.467Z,1.98
2022-08-11T07:01:55.248Z,1.65
2022-08-11T07:04:44.716Z,1.58
2022-08-11T07:08:35.812Z,2.10
2022-08-11T07:12:41.298Z,1.88
2022-08-11T07:16:12.928Z,2.00
2022-08-11T07:19:05.967Z,2.63
2022-08-11T07:22:08.071Z,1.77
2022-08-11T07:25:16.741Z,1.75
2022-08-11T07:28:22.291Z,1.92
2022-08-11T07:31:14.159Z,2.08
2022-08-11T07:34:15.856Z,1.80
2022-08-11T07:37:10.154Z,2.53
2022-08-11T07:39:55.345Z,2.00
2022-08-11T07:42:44.817Z,1.95
2022-08-11T07:45:47.842Z,1.80
2022-08-11T07:48:49.820Z,1.75
2022-08-11T07:51:51.330Z,2.20
2022-08-11T07:54:36.756Z,2.10
2022-08-11T07:58:14.251Z,1.98
2022-08-11T08:01:03.545Z,1.73
2022-08-11T08:04:12.510Z,1.75
2022-08-11T08:07:14.695Z,2.08
2022-08-11T08:10:17.039Z,1.60
2022-08-11T08:13:19.645Z,1.85
2022-08-11T08:16:22.620Z,1.98
2022-08-11T08:19:06.983Z,1.58
2022-08-11T08:21:51.915Z,1.92
2022-08-11T08:24:36.262Z,2.03
2022-08-11T08:27:22.060Z,1.48
2022-08-11T08:30:25.319Z,1.25
2022-08-11T08:33:13.316Z,1.95
2022-08-11T08:36:12.918Z,1.52
2022-08-11T08:38:57.047Z,1.40
2022-08-11T08:41:42.719Z,2.03
2022-08-11T08:44:38.232Z,1.67
2022-08-11T08:47:42.159Z,1.50
2022-08-11T08:50:47.127Z,1.27
2022-08-11T08:53:35.653Z,1.10
2022-08-11T08:56:20.707Z,1.55
2022-08-11T08:59:08.267Z,1.70
2022-08-11T09:01:59.042Z,1.63
2022-08-11T09:04:46.822Z,2.30
2022-08-11T09:07:38.742Z,1.50
2022-08-11T09:10:24.587Z,1.60
2022-08-11T09:13:09.564Z,1.40
2022-08-11T09:15:56.369Z,1.90
2022-08-11T09:18:44.696Z,1.77
2022-08-11T09:21:38.589Z,2.08
2022-08-11T09:24:53.259Z,1.70
2022-08-11T09:27:39.197Z,1.65
2022-08-11T09:30:34.761Z,1.67
2022-08-11T09:33:18.777Z,1.92
2022-08-11T09:36:24.157Z,1.80
2022-08-11T09:39:26.687Z,1.85
2022-08-11T09:42:16.381Z,1.83
2022-08-11T09:45:01.930Z,1.88
2022-08-11T09:47:47.803Z,1.80
2022-08-11T09:50:32.259Z,2.53
2022-08-11T09:53:37.251Z,2.28
2022-08-11T09:56:43.218Z,1.75
2022-08-11T09:59:28.601Z,1.52
2022-08-11T10:02:12.976Z,1.55
2022-08-11T10:05:19.606Z,1.98
2022-08-11T10:08:03.600Z,1.92
2022-08-11T10:10:48.778Z,1.50
2022-08-11T10:14:31.260Z,1.90
2022-08-11T10:17:03.037Z,2.15
2022-08-11T10:20:04.270Z,1.80
2022-08-11T10:23:06.969Z,1.80
2022-08-11T10:26:23.514Z,1.83
2022-08-11T10:29:30.245Z,1.65
2022-08-11T10:32:57.961Z,2.20
2022-08-11T10:35:45.323Z,1.77
2022-08-11T10:38:31.308Z,1.85
2022-08-11T10:41:33.421Z,1.92
2022-08-11T10:44:18.322Z,1.70
2022-08-11T10:47:21.305Z,1.55
2022-08-11T10:50:28.559Z,1.65
2022-08-11T10:53:31.612Z,1.60
2022-08-11T10:56:34.005Z,1.73
2022-08-11T10:59:18.720Z,2.03
2022-08-11T11:02:03.339Z,2.25
2022-08-11T11:05:14.217Z,1.70
2022-08-11T11:08:04.256Z,2.05
2022-08-11T11:10:49.518Z,1.75
2022-08-11T11:13:55.539Z,1.40
2022-08-11T11:17:14.227Z,2.10
2022-08-11T11:20:00.557Z,1.55
2022-08-11T11:22:52.567Z,1.70
2022-08-11T11:26:11.077Z,2.00
2022-08-11T11:29:25.336Z,1.90
2022-08-11T11:32:25.341Z,2.10
2022-08-11T11:35:37.260Z,1.60
2022-08-11T11:38:22.852Z,1.63
2022-08-11T11:41:24.391Z,1.42
2022-08-11T11:44:09.137Z,1.92
2022-08-11T11:46:56.589Z,1.60
2022-08-11T11:49:44.261Z,2.40
2022-08-11T11:52:28.901Z,1.50
2022-08-11T11:55:14.538Z,1.88
2022-08-11T11:58:18.790Z,2.17
2022-08-11T12:01:20.262Z,1.90
2022-08-11T12:04:06.995Z,1.70
2022-08-11T12:06:52.478Z,1.70
2022-08-11T12:09:36.665Z,2.10
2022-08-11T12:12:40.360Z,1.63
2022-08-11T12:16:04.296Z,1.58
2022-08-11T12:18:31.026Z,1.85
2022-08-11T12:21:16.673Z,2.05
2022-08-11T12:27:42.679Z,1.63
2022-08-11T12:30:27.050Z,2.08
2022-08-11T12:33:11.168Z,1.58
2022-08-11T12:36:00.773Z,2.60
2022-08-11T12:38:51.442Z,1.70
2022-08-11T12:41:54.750Z,1.90
2022-08-11T12:44:57.491Z,2.00
2022-08-11T12:48:47.808Z,2.10
2022-08-11T12:51:22.250Z,1.63
2022-08-11T12:54:13.572Z,1.55
2022-08-11T12:57:24.213Z,2.20
2022-08-11T13:00:42.249Z,2.30
2022-08-11T13:03:43.819Z,2.03
2022-08-11T13:06:37.699Z,2.22
2022-08-11T13:09:24.249Z,1.90
2022-08-11T13:12:25.408Z,2.13
2022-08-11T13:15:12.070Z,1.90
2022-08-11T13:17:57.692Z,1.70
2022-08-11T13:20:44.350Z,1.95
2022-08-11T13:23:30.289Z,2.17
2022-08-11T13:26:14.244Z,2.17
2022-08-11T13:28:58.270Z,1.98
2022-08-11T13:31:44.030Z,1.83
2022-08-11T13:34:31.487Z,1.77
2022-08-11T13:37:17.804Z,2.38
2022-08-11T13:40:02.464Z,2.00
2022-08-11T13:42:48.454Z,1.50
2022-08-11T13:45:32.475Z,1.80
2022-08-11T13:48:18.415Z,1.85
2022-08-11T13:51:21.221Z,1.80
2022-08-11T13:54:07.180Z,2.05
2022-08-11T13:56:54.231Z,2.10
2022-08-11T13:59:51.693Z,1.58
2022-08-11T14:02:37.654Z,2.33
2022-08-11T14:05:28.742Z,2.28
2022-08-11T14:08:37.656Z,2.05
2022-08-11T14:12:19.951Z,2.00
2022-08-11T14:14:48.442Z,2.20
2022-08-11T14:17:46.967Z,1.92
2022-08-11T14:20:49.235Z,1.95
2022-08-11T14:23:39.151Z,1.90
2022-08-11T14:26:27.797Z,1.95
2022-08-11T14:29:15.110Z,1.88
2022-08-11T14:32:01.838Z,1.85
2022-08-11T14:34:46.627Z,1.80
2022-08-11T14:37:31.069Z,1.90
2022-08-11T14:40:33.313Z,2.03
2022-08-11T14:44:05.848Z,2.45
2022-08-11T14:46:58.531Z,2.28
2022-08-11T14:49:58.113Z,1.88
2022-08-11T14:52:52.052Z,1.70
2022-08-11T14:55:57.956Z,2.50
2022-08-11T14:58:44.167Z,1.90
2022-08-11T15:01:45.405Z,2.38
2022-08-11T15:04:36.491Z,2.05
2022-08-11T15:07:30.048Z,2.05
2022-08-11T15:10:14.326Z,1.60
2022-08-11T15:13:00.567Z,1.55
2022-08-11T15:16:00.501Z,2.00
2022-08-11T15:18:47.722Z,2.08
2022-08-11T15:21:49.092Z,1.63
2022-08-11T15:24:35.566Z,2.08
2022-08-11T15:27:40.173Z,2.00
2022-08-11T15:30:45.471Z,1.80
2022-08-11T15:33:48.933Z,3.42
2022-08-11T15:36:53.229Z,2.08
2022-08-11T15:40:01.399Z,1.40
2022-08-11T15:43:12.695Z,2.63
2022-08-11T15:46:02.525Z,2.40
2022-08-11T15:48:51.622Z,2.53
2022-08-11T15:51:38.535Z,3.00
2022-08-11T15:54:26.561Z,2.05
2022-08-11T15:57:39.741Z,1.95
2022-08-11T16:00:41.744Z,2.13
2022-08-11T16:04:06.721Z,2.00
2022-08-11T16:06:57.251Z,1.92
2022-08-11T16:09:51.618Z,1.90
2022-08-11T16:12:41.045Z,1.88
2022-08-11T16:15:42.615Z,1.70
2022-08-11T16:18:40.765Z,2.20
2022-08-11T16:21:34.587Z,1.80
2022-08-11T16:27:01.380Z,1.65
2022-08-11T16:27:26.928Z,2.00
2022-08-11T16:30:12.007Z,2.00
2022-08-11T16:32:57.772Z,1.90
2022-08-11T16:36:03.136Z,1.80
2022-08-11T16:38:48.127Z,2.03
2022-08-11T16:41:52.299Z,1.85
2022-08-11T16:44:54.932Z,2.05
2022-08-11T16:48:01.876Z,2.28
2022-08-11T16:50:45.193Z,1.80
2022-08-11T16:53:59.779Z,2.40
2022-08-11T16:56:43.924Z,2.50
2022-08-11T16:59:32.730Z,2.10
2022-08-11T17:02:41.575Z,2.92
2022-08-11T17:05:55.289Z,2.50
2022-08-11T17:09:05.406Z,2.40
2022-08-11T17:12:11.906Z,2.40
2022-08-11T17:14:59.820Z,2.38
2022-08-11T17:17:44.332Z,2.05
2022-08-11T17:20:41.171Z,2.85
2022-08-11T17:23:45.492Z,2.40
2022-08-11T17:26:48.521Z,2.13
2022-08-11T17:29:54.464Z,2.03
2022-08-11T17:33:00.416Z,2.33
2022-08-11T17:35:45.452Z,2.30
2022-08-11T17:38:31.142Z,1.77
2022-08-11T17:41:42.403Z,2.10
2022-08-11T17:44:46.159Z,2.33
2022-08-11T17:47:49.304Z,2.05
2022-08-11T17:50:34.866Z,2.70
2022-08-11T17:53:38.890Z,2.22
2022-08-11T17:56:41.795Z,2.45
2022-08-11T17:59:49.128Z,2.30
2022-08-11T18:02:55.341Z,2.25
2022-08-11T18:05:44.746Z,2.20
2022-08-11T18:08:47.830Z,2.20
2022-08-11T18:12:10.692Z,2.03
2022-08-11T18:15:15.647Z,2.17
2022-08-11T18:18:19.107Z,2.38
2022-08-11T18:21:22.015Z,2.35
2022-08-11T18:24:28.308Z,2.20
2022-08-11T18:27:33.047Z,1.98
2022-08-11T18:30:36.876Z,2.08
2022-08-11T18:34:03.721Z,2.10
2022-08-11T18:37:08.610Z,1.90
2022-08-11T18:40:24.826Z,2.60
2022-08-11T18:43:29.610Z,2.10
2022-08-11T18:46:36.932Z,2.20
2022-08-11T18:50:02.397Z,2.30
2022-08-11T18:53:09.721Z,2.20
2022-08-11T18:56:14.906Z,2.00
2022-08-11T18:59:17.869Z,1.80
2022-08-11T19:02:24.788Z,2.00
2022-08-11T19:06:31.724Z,2.10
2022-08-11T19:08:56.291Z,2.35
2022-08-11T19:11:59.768Z,2.60
2022-08-11T19:15:03.765Z,1.80
2022-08-11T19:18:08.777Z,2.45
2022-08-11T19:21:14.325Z,2.15
2022-08-11T19:24:19.979Z,2.13
2022-08-11T19:27:22.081Z,2.65
2022-08-11T19:30:24.389Z,2.33
2022-08-11T19:33:59.838Z,2.45
2022-08-11T19:36:51.339Z,2.85
2022-08-11T19:39:54.536Z,1.70
2022-08-11T19:42:57.204Z,2.20
2022-08-11T19:46:00.384Z,2.45
2022-08-11T19:49:06.052Z,2.20
2022-08-11T19:52:09.203Z,2.22
2022-08-11T19:55:11.374Z,2.33
2022-08-11T19:58:14.120Z,1.90
2022-08-11T20:01:15.733Z,1.90
2022-08-11T20:04:18.404Z,1.95
2022-08-11T20:07:21.311Z,2.35
2022-08-11T20:10:26.510Z,2.45
2022-08-11T20:13:30.132Z,2.72
2022-08-11T20:16:34.790Z,2.60
2022-08-11T20:19:56.350Z,2.45
2022-08-11T20:22:59.845Z,2.50
2022-08-11T20:26:27.623Z,1.90
2022-08-11T20:29:25.190Z,2.13
2022-08-11T20:32:29.944Z,2.10
2022-08-11T20:35:32.817Z,2.13
2022-08-11T20:38:35.077Z,2.20
2022-08-11T20:41:49.227Z,1.75
2022-08-11T20:45:01.693Z,1.80
2022-08-11T20:48:06.356Z,2.10
2022-08-11T20:51:09.969Z,1.88
2022-08-11T20:54:19.023Z,2.28
2022-08-11T20:58:00.106Z,1.95
2022-08-11T21:01:03.153Z,2.03
2022-08-11T21:04:04.852Z,2.30
2022-08-11T21:07:10.752Z,1.98
2022-08-11T21:10:23.474Z,2.17
2022-08-11T21:13:29.315Z,2.10
2022-08-11T21:16:35.651Z,2.00
2022-08-11T21:19:59.962Z,1.88
2022-08-11T21:23:14.970Z,1.98
2022-08-11T21:26:29.352Z,2.03
2022-08-11T21:29:31.807Z,1.88
2022-08-11T21:32:34.242Z,2.00
2022-08-11T21:35:36.444Z,1.85
2022-08-11T21:38:49.602Z,2.10
2022-08-11T21:41:51.748Z,2.05
2022-08-11T21:44:53.216Z,2.22
2022-08-11T21:48:01.142Z,2.20
2022-08-11T21:51:03.452Z,2.10
2022-08-11T21:54:07.691Z,1.70
2022-08-11T21:57:10.887Z,2.20
2022-08-11T22:00:14.236Z,2.00
2022-08-11T22:03:16.976Z,1.90
2022-08-11T22:06:19.608Z,2.42
2022-08-11T22:09:23.695Z,2.20
2022-08-11T22:12:33.402Z,2.28
2022-08-11T22:15:36.708Z,2.17
2022-08-11T22:18:38.063Z,1.67
2022-08-11T22:22:02.328Z,2.17
2022-08-11T22:25:11.659Z,2.10
2022-08-11T22:28:18.306Z,1.95
2022-08-11T22:31:20.294Z,1.77
2022-08-11T22:34:21.516Z,2.00
2022-08-11T22:37:27.533Z,2.60
2022-08-11T22:40:31.783Z,2.15
2022-08-11T22:43:33.034Z,2.10
2022-08-11T22:46:37.090Z,2.00
2022-08-11T22:49:42.638Z,2.30
2022-08-11T22:53:01.098Z,2.20
2022-08-11T22:56:05.341Z,2.47
2022-08-11T22:59:07.735Z,2.25
2022-08-11T23:02:09.947Z,2.30
2022-08-11T23:05:12.675Z,2.05
2022-08-11T23:08:16.180Z,2.03
2022-08-11T23:11:19.225Z,2.28
2022-08-11T23:14:20.691Z,2.67
2022-08-11T23:17:21.978Z,2.42
2022-08-11T23:20:32.961Z,2.03
2022-08-11T23:23:37.444Z,2.28
2022-08-11T23:26:43.213Z,2.45
2022-08-11T23:29:45.790Z,2.15
2022-08-11T23:32:49.763Z,2.10
2022-08-11T23:35:55.459Z,2.00
2022-08-11T23:38:59.373Z,2.03
2022-08-11T23:42:02.987Z,2.28
2022-08-11T23:45:04.544Z,1.95
2022-08-11T23:48:09.652Z,2.42
2022-08-11T23:51:11.672Z,2.25
2022-08-11T23:54:14.155Z,2.20
2022-08-11T23:57:17.376Z,2.10
